createdAt,value
2019-05-01T00:00:30.144Z,54.20
2019-05-01T00:03:03.458Z,54.00
2019-05-01T00:05:35.294Z,53.50
2019-05-01T00:08:06.010Z,53.70
2019-05-01T00:10:36.205Z,53.10
2019-05-01T00:13:06.813Z,53.30
2019-05-01T00:15:39.174Z,53.80
2019-05-01T00:18:09.658Z,53.60
2019-05-01T00:20:39.807Z,53.30
2019-05-01T00:23:09.997Z,53.60
2019-05-01T00:25:40.080Z,52.90
2019-05-01T00:28:10.440Z,53.40
2019-05-01T00:30:40.936Z,54.70
2019-05-01T00:33:11.141Z,53.50
2019-05-01T00:35:41.203Z,54.20
2019-05-01T00:38:11.252Z,54.10
2019-05-01T00:40:41.377Z,53.80
2019-05-01T00:43:11.583Z,51.50
2019-05-01T00:45:41.699Z,52.00
2019-05-01T00:48:11.839Z,51.70
2019-05-01T00:50:41.967Z,51.30
2019-05-01T00:53:12.104Z,53.50
2019-05-01T00:55:49.857Z,54.60
2019-05-01T00:58:37.897Z,52.40
2019-05-01T01:01:09.684Z,52.70
2019-05-01T01:03:40.672Z,54.00
2019-05-01T01:06:11.163Z,54.20
2019-05-01T01:08:41.369Z,53.20
2019-05-01T01:11:11.504Z,54.40
2019-05-01T01:13:41.690Z,53.90
2019-05-01T01:16:11.823Z,51.50
2019-05-01T01:18:41.942Z,52.20
2019-05-01T01:21:12.200Z,53.90
2019-05-01T01:23:43.235Z,54.60
2019-05-01T01:26:13.555Z,53.70
2019-05-01T01:28:43.741Z,54.10
2019-05-01T01:31:14.031Z,52.00
2019-05-01T01:33:44.625Z,54.90
2019-05-01T01:36:14.914Z,53.00
2019-05-01T01:38:45.060Z,52.90
2019-05-01T01:41:15.451Z,54.50
2019-05-01T01:43:53.499Z,55.20
2019-05-01T01:46:31.073Z,54.60
2019-05-01T01:49:01.203Z,54.80
2019-05-01T01:51:31.451Z,54.10
2019-05-01T01:54:01.947Z,55.30
2019-05-01T01:56:32.154Z,54.40
2019-05-01T01:59:02.922Z,53.60
2019-05-01T02:01:37.423Z,52.30
2019-05-01T02:04:18.458Z,53.00
2019-05-01T02:06:50.214Z,54.80
2019-05-01T02:09:20.409Z,54.90
2019-05-01T02:11:50.621Z,55.10
2019-05-01T02:14:20.809Z,54.10
2019-05-01T02:16:50.865Z,54.30
2019-05-01T02:19:21.057Z,54.40
2019-05-01T02:21:51.124Z,55.00
2019-05-01T02:24:22.096Z,55.10
2019-05-01T02:26:54.829Z,55.80
2019-05-01T02:29:30.280Z,56.40
2019-05-01T02:32:01.840Z,55.90
2019-05-01T02:34:33.374Z,56.20
2019-05-01T02:37:04.213Z,55.90
2019-05-01T02:39:36.902Z,54.70
2019-05-01T02:42:09.203Z,56.40
2019-05-01T02:44:42.264Z,55.70
2019-05-01T02:47:15.734Z,56.20
2019-05-01T02:49:52.426Z,57.80
2019-05-01T02:52:25.556Z,57.40
2019-05-01T02:55:00.240Z,57.30
2019-05-01T02:57:30.428Z,57.50
2019-05-01T03:00:00.637Z,57.60
2019-05-01T03:02:32.004Z,57.60
2019-05-01T03:05:05.591Z,57.60
2019-05-01T03:07:36.347Z,57.70
2019-05-01T03:10:09.621Z,57.50
2019-05-01T03:12:42.029Z,56.90
2019-05-01T03:15:13.795Z,57.30
2019-05-01T03:17:58.918Z,57.50
2019-05-01T03:20:34.975Z,58.20
2019-05-01T03:23:23.497Z,58.90
2019-05-01T03:25:53.991Z,58.40
2019-05-01T03:28:24.610Z,59.20
2019-05-01T03:30:55.129Z,59.80
2019-05-01T03:33:25.637Z,59.40
2019-05-01T03:35:55.760Z,59.30
2019-05-01T03:38:26.625Z,59.20
2019-05-01T03:40:57.356Z,59.00
2019-05-01T03:43:28.064Z,59.40
2019-05-01T03:45:58.600Z,59.70
2019-05-01T03:48:28.653Z,59.70
2019-05-01T03:50:58.871Z,59.40
2019-05-01T03:53:29.690Z,59.80
2019-05-01T03:56:00.431Z,60.70
2019-05-01T03:58:31.642Z,59.30
2019-05-01T04:01:15.646Z,59.70
2019-05-01T04:03:56.540Z,59.90
2019-05-01T04:06:26.925Z,60.00
2019-05-01T04:08:57.137Z,60.00
2019-05-01T04:11:27.643Z,59.80
2019-05-01T04:13:58.529Z,59.90
2019-05-01T04:16:29.809Z,60.00
2019-05-01T04:19:00.070Z,60.30
2019-05-01T04:21:31.996Z,59.90
2019-05-01T04:24:02.245Z,60.10
2019-05-01T04:26:33.451Z,60.40
2019-05-01T04:29:08.064Z,60.40
2019-05-01T04:31:42.541Z,61.20
2019-05-01T04:34:14.843Z,60.90
2019-05-01T04:36:53.513Z,60.30
2019-05-01T04:39:23.572Z,60.40
2019-05-01T04:41:54.088Z,60.40
2019-05-01T04:44:25.043Z,60.80
2019-05-01T04:46:55.546Z,61.00
2019-05-01T04:49:25.826Z,60.90
2019-05-01T04:51:57.369Z,60.60
2019-05-01T04:54:28.669Z,60.40
2019-05-01T04:56:58.797Z,60.60
2019-05-01T04:59:28.987Z,61.30
2019-05-01T05:02:01.414Z,62.20
2019-05-01T05:04:32.114Z,61.80
2019-05-01T05:07:02.528Z,62.30
2019-05-01T05:09:40.516Z,61.10
2019-05-01T05:12:15.531Z,62.20
2019-05-01T05:14:53.267Z,60.80
2019-05-01T05:17:24.259Z,60.40
2019-05-01T05:19:54.770Z,60.30
2019-05-01T05:22:25.695Z,60.40
2019-05-01T05:24:56.084Z,60.00
2019-05-01T05:27:26.979Z,59.80
2019-05-01T05:29:58.101Z,58.80
2019-05-01T05:32:29.889Z,58.50
2019-05-01T05:35:01.661Z,58.70
2019-05-01T05:37:43.750Z,58.40
2019-05-01T05:40:13.947Z,58.00
2019-05-01T05:42:44.284Z,57.50
2019-05-01T05:45:14.424Z,57.10
2019-05-01T05:47:44.656Z,57.10
2019-05-01T05:50:16.691Z,56.10
2019-05-01T05:52:54.873Z,55.70
2019-05-01T05:55:43.745Z,55.60
2019-05-01T05:58:23.826Z,55.10
2019-05-01T06:01:13.796Z,54.90
2019-05-01T06:04:03.568Z,54.10
2019-05-01T06:06:43.140Z,53.60
2019-05-01T06:09:15.674Z,53.70
2019-05-01T06:12:05.031Z,53.70
2019-05-01T06:14:54.286Z,53.40
2019-05-01T06:17:29.751Z,52.50
2019-05-01T06:20:20.758Z,52.70
2019-05-01T06:23:15.763Z,52.20
2019-05-01T06:25:54.206Z,51.30
2019-05-01T06:28:24.668Z,50.10
2019-05-01T06:30:55.997Z,49.90
2019-05-01T06:33:26.222Z,49.40
2019-05-01T06:35:56.436Z,48.70
2019-05-01T06:38:26.561Z,49.60
2019-05-01T06:40:59.897Z,48.50
2019-05-01T06:43:46.571Z,47.60
2019-05-01T06:46:22.032Z,48.00
2019-05-01T06:49:03.044Z,47.70
2019-05-01T06:51:34.860Z,47.50
2019-05-01T06:54:11.272Z,47.10
2019-05-01T06:56:42.615Z,45.60
2019-05-01T06:59:14.801Z,46.40
2019-05-01T07:01:47.900Z,44.50
2019-05-01T07:04:18.750Z,42.80
2019-05-01T07:06:49.667Z,43.00
2019-05-01T07:09:27.797Z,42.70
2019-05-01T07:11:54.370Z,43.10
2019-05-01T07:14:24.531Z,42.10
2019-05-01T07:16:54.671Z,41.10
2019-05-01T07:19:26.711Z,40.00
2019-05-01T07:21:56.860Z,40.10
2019-05-01T07:24:28.046Z,40.30
2019-05-01T07:26:59.864Z,39.60
2019-05-01T07:29:32.993Z,39.10
2019-05-01T07:32:06.388Z,38.80
2019-05-01T07:34:35.223Z,37.80
2019-05-01T07:37:05.429Z,36.40
2019-05-01T07:39:35.753Z,37.20
2019-05-01T07:42:14.013Z,37.60
2019-05-01T07:44:45.884Z,37.10
2019-05-01T07:47:17.928Z,35.90
2019-05-01T07:49:55.091Z,34.60
2019-05-01T07:52:25.589Z,35.10
2019-05-01T07:54:56.239Z,35.00
2019-05-01T07:57:26.823Z,38.60
2019-05-01T07:59:58.214Z,36.60
2019-05-01T08:02:30.939Z,38.10
2019-05-01T08:05:04.956Z,39.60
2019-05-01T08:07:33.615Z,40.00
2019-05-01T08:10:08.225Z,40.10
2019-05-01T08:12:38.206Z,40.30
2019-05-01T08:15:08.406Z,40.60
2019-05-01T08:17:40.111Z,40.00
2019-05-01T08:20:31.436Z,39.70
2019-05-01T08:23:01.491Z,39.60
2019-05-01T08:25:33.179Z,39.30
2019-05-01T08:28:21.268Z,39.60
2019-05-01T08:30:54.009Z,38.90
2019-05-01T08:33:35.151Z,39.80
2019-05-01T08:36:06.799Z,40.10
2019-05-01T08:38:37.157Z,39.70
2019-05-01T08:41:07.276Z,39.90
2019-05-01T08:43:38.575Z,39.40
2019-05-01T08:46:26.782Z,38.60
2019-05-01T08:49:13.795Z,39.40
2019-05-01T08:51:43.849Z,38.70
2019-05-01T08:54:14.077Z,39.40
2019-05-01T08:56:44.134Z,38.60
2019-05-01T08:59:14.306Z,37.80
2019-05-01T09:01:45.789Z,36.80
2019-05-01T09:04:18.722Z,38.50
2019-05-01T09:06:47.886Z,38.90
2019-05-01T09:09:18.016Z,38.70
2019-05-01T09:11:48.194Z,38.40
2019-05-01T09:14:18.310Z,38.40
2019-05-01T09:16:48.428Z,38.40
2019-05-01T09:19:18.557Z,38.50
2019-05-01T09:21:48.686Z,38.60
2019-05-01T09:24:22.936Z,38.50
2019-05-01T09:27:04.162Z,39.10
2019-05-01T09:29:38.012Z,38.90
2019-05-01T09:32:10.115Z,39.50
2019-05-01T09:34:40.068Z,39.40
2019-05-01T09:37:10.408Z,39.90
2019-05-01T09:39:41.012Z,38.50
2019-05-01T09:42:11.601Z,38.50
2019-05-01T09:44:41.658Z,38.40
2019-05-01T09:47:12.463Z,37.90
2019-05-01T09:49:43.008Z,38.20
2019-05-01T09:52:23.400Z,38.00
2019-05-01T09:54:59.867Z,38.60
2019-05-01T09:57:29.982Z,38.60
2019-05-01T10:00:00.134Z,38.90
2019-05-01T10:02:30.253Z,39.20
2019-05-01T10:05:01.993Z,39.10
2019-05-01T10:07:32.145Z,38.80
2019-05-01T10:10:02.295Z,38.30
2019-05-01T10:12:32.439Z,39.50
2019-05-01T10:15:02.565Z,39.60
2019-05-01T10:17:32.752Z,39.50
2019-05-01T10:20:03.236Z,39.70
2019-05-01T10:22:37.570Z,39.60
2019-05-01T10:25:08.606Z,40.10
2019-05-01T10:27:39.932Z,38.40
2019-05-01T10:30:31.724Z,40.00
2019-05-01T10:33:03.360Z,40.10
2019-05-01T10:35:51.099Z,41.10
2019-05-01T10:38:21.171Z,42.80
2019-05-01T10:40:51.379Z,43.70
2019-05-01T10:43:21.519Z,42.50
2019-05-01T10:45:54.363Z,41.90
2019-05-01T10:48:24.494Z,43.40
2019-05-01T10:50:54.638Z,41.40
2019-05-01T10:53:24.833Z,41.50
2019-05-01T10:55:54.957Z,41.50
2019-05-01T10:58:25.156Z,41.10
2019-05-01T11:00:59.700Z,41.00
2019-05-01T11:03:29.854Z,40.50
2019-05-01T11:05:59.981Z,41.40
2019-05-01T11:08:30.131Z,38.70
2019-05-01T11:11:00.320Z,38.20
2019-05-01T11:13:30.451Z,39.80
2019-05-01T11:16:00.638Z,40.30
2019-05-01T11:18:30.787Z,40.10
2019-05-01T11:21:01.249Z,39.00
2019-05-01T11:23:31.295Z,39.70
2019-05-01T11:26:01.426Z,40.00
2019-05-01T11:28:32.563Z,39.60
2019-05-01T11:31:03.137Z,37.50
2019-05-01T11:33:46.904Z,39.80
2019-05-01T11:36:36.488Z,40.10
2019-05-01T11:39:25.863Z,38.30
2019-05-01T11:42:09.903Z,36.10
2019-05-01T11:44:40.069Z,39.00
2019-05-01T11:47:10.263Z,38.20
2019-05-01T11:49:40.387Z,38.90
2019-05-01T11:52:10.450Z,39.60
2019-05-01T11:54:40.788Z,38.80
2019-05-01T11:57:10.765Z,37.90
2019-05-01T11:59:40.772Z,39.60
2019-05-01T12:02:10.985Z,38.10
2019-05-01T12:04:41.119Z,39.10
2019-05-01T12:07:11.172Z,38.40
2019-05-01T12:09:42.862Z,39.30
2019-05-01T12:12:17.696Z,37.70
2019-05-01T12:14:47.907Z,38.80
2019-05-01T12:17:22.575Z,38.80
2019-05-01T12:19:52.761Z,38.70
2019-05-01T12:22:23.278Z,38.80
2019-05-01T12:24:53.424Z,38.30
2019-05-01T12:27:23.429Z,37.40
2019-05-01T12:29:53.557Z,37.90
2019-05-01T12:32:24.743Z,38.90
2019-05-01T12:34:54.867Z,38.30
2019-05-01T12:37:29.005Z,37.40
2019-05-01T12:39:59.148Z,37.90
2019-05-01T12:42:30.872Z,38.60
2019-05-01T12:45:01.003Z,38.80
2019-05-01T12:47:33.018Z,38.50
2019-05-01T12:50:03.139Z,37.80
2019-05-01T12:52:47.005Z,38.70
2019-05-01T12:55:30.770Z,38.50
2019-05-01T12:58:01.965Z,38.80
2019-05-01T13:00:54.507Z,38.90
2019-05-01T13:03:24.698Z,39.20
2019-05-01T13:05:54.905Z,37.30
2019-05-01T13:08:25.328Z,38.30
2019-05-01T13:10:55.803Z,37.60
2019-05-01T13:13:25.851Z,37.10
2019-05-01T13:15:56.060Z,37.40
2019-05-01T13:18:26.195Z,38.10
2019-05-01T13:20:56.379Z,38.20
2019-05-01T13:23:26.527Z,38.00
2019-05-01T13:25:58.735Z,36.90
2019-05-01T13:28:42.795Z,36.00
2019-05-01T13:31:14.640Z,37.00
2019-05-01T13:33:44.905Z,37.00
2019-05-01T13:36:15.051Z,37.40
2019-05-01T13:38:45.288Z,36.70
2019-05-01T13:41:15.639Z,36.80
2019-05-01T13:43:45.784Z,37.80
2019-05-01T13:46:15.926Z,36.40
2019-05-01T13:48:46.010Z,37.40
2019-05-01T13:51:16.426Z,36.50
2019-05-01T13:53:46.632Z,37.80
2019-05-01T13:56:16.829Z,38.50
2019-05-01T13:58:46.885Z,36.30
2019-05-01T14:01:17.173Z,37.70
2019-05-01T14:03:47.345Z,37.80
2019-05-01T14:06:17.407Z,35.00
2019-05-01T14:08:47.457Z,37.20
2019-05-01T14:11:17.668Z,37.50
2019-05-01T14:13:47.717Z,37.40
2019-05-01T14:16:17.723Z,37.60
2019-05-01T14:18:47.917Z,38.70
2019-05-01T14:21:37.501Z,38.20
2019-05-01T14:24:09.171Z,38.50
2019-05-01T14:26:39.303Z,38.60
2019-05-01T14:29:09.294Z,38.60
2019-05-01T14:31:39.356Z,38.50
2019-05-01T14:34:09.486Z,37.50
2019-05-01T14:36:40.608Z,37.90
2019-05-01T14:39:10.744Z,38.80
2019-05-01T14:41:40.949Z,38.60
2019-05-01T14:44:11.164Z,38.80
2019-05-01T14:46:41.281Z,38.60
2019-05-01T14:49:11.351Z,38.70
2019-05-01T14:51:41.478Z,37.90
2019-05-01T14:54:11.695Z,38.50
2019-05-01T14:56:43.332Z,34.30
2019-05-01T14:59:13.689Z,36.70
2019-05-01T15:01:47.020Z,38.60
2019-05-01T15:04:15.984Z,37.80
2019-05-01T15:06:46.113Z,38.10
2019-05-01T15:09:16.173Z,38.20
2019-05-01T15:11:46.491Z,37.80
2019-05-01T15:14:24.308Z,37.80
2019-05-01T15:17:04.860Z,38.00
2019-05-01T15:19:36.629Z,38.00
2019-05-01T15:22:06.885Z,38.20
2019-05-01T15:24:36.936Z,38.00
2019-05-01T15:27:07.150Z,38.20
2019-05-01T15:29:37.275Z,37.60
2019-05-01T15:32:07.484Z,38.00
2019-05-01T15:34:37.621Z,38.10
2019-05-01T15:37:07.750Z,38.30
2019-05-01T15:39:54.886Z,38.10
2019-05-01T15:42:26.600Z,38.20
2019-05-01T15:44:56.734Z,38.40
2019-05-01T15:47:26.946Z,37.40
2019-05-01T15:49:57.074Z,36.60
2019-05-01T15:52:27.143Z,37.10
2019-05-01T15:54:57.271Z,37.20
2019-05-01T15:57:27.744Z,36.10
2019-05-01T15:59:57.864Z,36.90
2019-05-01T16:02:28.008Z,35.80
2019-05-01T16:04:58.005Z,37.40
2019-05-01T16:07:28.200Z,37.20
2019-05-01T16:09:58.338Z,37.90
2019-05-01T16:12:29.977Z,38.20
2019-05-01T16:15:01.135Z,37.60
2019-05-01T16:17:31.550Z,36.80
2019-05-01T16:20:01.747Z,37.40
2019-05-01T16:22:32.977Z,37.40
2019-05-01T16:25:03.156Z,37.60
2019-05-01T16:27:33.353Z,37.90
2019-05-01T16:30:05.049Z,37.20
2019-05-01T16:32:36.241Z,37.60
2019-05-01T16:35:07.428Z,37.80
2019-05-01T16:37:37.544Z,37.90
2019-05-01T16:40:21.523Z,38.00
2019-05-01T16:42:51.720Z,37.80
2019-05-01T16:45:23.259Z,37.50
2019-05-01T16:47:53.529Z,38.20
2019-05-01T16:50:23.917Z,38.40
2019-05-01T16:52:54.067Z,38.50
2019-05-01T16:55:24.277Z,38.20
2019-05-01T16:57:54.473Z,38.80
2019-05-01T17:00:42.857Z,38.80
2019-05-01T17:03:20.440Z,38.90
2019-05-01T17:05:52.192Z,38.90
2019-05-01T17:08:36.873Z,38.80
2019-05-01T17:11:09.320Z,39.40
2019-05-01T17:13:39.373Z,39.80
2019-05-01T17:16:10.655Z,40.20
2019-05-01T17:18:40.792Z,40.50
2019-05-01T17:21:10.976Z,39.40
2019-05-01T17:23:41.168Z,40.20
2019-05-01T17:26:11.381Z,40.20
2019-05-01T17:28:41.563Z,40.40
2019-05-01T17:31:11.757Z,40.60
2019-05-01T17:33:42.021Z,40.50
2019-05-01T17:36:12.313Z,40.60
2019-05-01T17:38:49.388Z,40.50
2019-05-01T17:41:14.314Z,40.70
2019-05-01T17:43:44.658Z,41.00
2019-05-01T17:46:16.128Z,41.20
2019-05-01T17:48:46.632Z,41.50
2019-05-01T17:51:19.604Z,41.70
2019-05-01T17:53:48.562Z,42.00
2019-05-01T17:56:25.932Z,42.00
2019-05-01T17:58:50.589Z,42.30
2019-05-01T18:01:22.428Z,42.70
2019-05-01T18:03:57.984Z,42.70
2019-05-01T18:06:29.610Z,42.80
2019-05-01T18:09:03.088Z,43.10
2019-05-01T18:11:32.387Z,43.20
2019-05-01T18:14:02.333Z,43.50
2019-05-01T18:16:32.990Z,43.40
2019-05-01T18:19:03.065Z,43.60
2019-05-01T18:21:33.224Z,44.20
2019-05-01T18:24:23.307Z,44.50
2019-05-01T18:26:57.842Z,44.80
2019-05-01T18:29:47.881Z,45.00
2019-05-01T18:32:19.631Z,45.00
2019-05-01T18:35:02.398Z,45.30
2019-05-01T18:37:35.039Z,45.80
2019-05-01T18:40:10.537Z,45.90
2019-05-01T18:42:40.963Z,46.10
2019-05-01T18:45:19.964Z,46.40
2019-05-01T18:47:49.104Z,46.50
2019-05-01T18:50:19.506Z,46.50
2019-05-01T18:52:49.514Z,46.70
2019-05-01T18:55:19.705Z,46.80
2019-05-01T18:57:49.905Z,46.80
2019-05-01T19:00:20.028Z,47.00
2019-05-01T19:02:50.171Z,46.90
2019-05-01T19:05:20.730Z,47.30
2019-05-01T19:07:50.867Z,47.30
2019-05-01T19:10:21.033Z,47.20
2019-05-01T19:12:51.097Z,47.50
2019-05-01T19:15:21.432Z,47.10
2019-05-01T19:17:51.694Z,47.40
2019-05-01T19:20:21.959Z,47.50
2019-05-01T19:22:52.063Z,47.30
2019-05-01T19:25:22.360Z,47.60
2019-05-01T19:27:53.630Z,48.40
2019-05-01T19:30:24.597Z,47.40
2019-05-01T19:32:55.337Z,47.80
2019-05-01T19:35:29.592Z,48.10
2019-05-01T19:37:58.936Z,47.30
2019-05-01T19:40:30.534Z,47.40
2019-05-01T19:43:01.355Z,47.10
2019-05-01T19:45:31.801Z,47.30
2019-05-01T19:48:02.073Z,47.20
2019-05-01T19:50:32.129Z,47.20
2019-05-01T19:53:02.144Z,47.20
2019-05-01T19:55:32.409Z,47.40
2019-05-01T19:58:02.540Z,47.00
2019-05-01T20:00:50.853Z,47.20
2019-05-01T20:03:21.525Z,47.40
2019-05-01T20:05:51.654Z,48.40
2019-05-01T20:08:21.899Z,47.70
2019-05-01T20:10:52.179Z,48.00
2019-05-01T20:13:22.387Z,46.60
2019-05-01T20:15:52.659Z,47.40
2019-05-01T20:18:22.861Z,47.80
2019-05-01T20:20:52.985Z,47.50
2019-05-01T20:23:26.133Z,46.90
2019-05-01T20:25:55.867Z,47.60
2019-05-01T20:28:28.726Z,47.80
2019-05-01T20:30:58.860Z,48.30
2019-05-01T20:33:33.374Z,48.50
2019-05-01T20:36:05.364Z,48.40
2019-05-01T20:38:32.869Z,48.30
2019-05-01T20:41:03.101Z,48.50
2019-05-01T20:43:33.659Z,48.30
2019-05-01T20:46:06.993Z,48.20
2019-05-01T20:48:36.266Z,48.60
2019-05-01T20:51:06.478Z,48.90
2019-05-01T20:53:38.763Z,49.00
2019-05-01T20:56:10.651Z,48.40
2019-05-01T20:58:40.885Z,48.40
2019-05-01T21:01:11.158Z,48.30
2019-05-01T21:03:42.951Z,49.00
2019-05-01T21:06:20.602Z,48.80
2019-05-01T21:08:58.362Z,49.50
2019-05-01T21:11:30.505Z,49.00
2019-05-01T21:14:15.974Z,47.60
2019-05-01T21:16:32.835Z,49.00
2019-05-01T21:19:04.436Z,49.00
2019-05-01T21:21:34.882Z,48.30
2019-05-01T21:24:05.241Z,48.30
2019-05-01T21:26:35.374Z,48.60
2019-05-01T21:29:06.959Z,49.00
2019-05-01T21:31:37.220Z,49.30
2019-05-01T21:34:07.363Z,47.70
2019-05-01T21:36:37.710Z,47.90
2019-05-01T21:39:07.828Z,49.20
2019-05-01T21:41:37.917Z,49.90
2019-05-01T21:44:07.969Z,50.10
2019-05-01T21:46:39.224Z,48.50
2019-05-01T21:49:12.791Z,50.30
2019-05-01T21:51:46.052Z,51.20
2019-05-01T21:54:16.009Z,50.70
2019-05-01T21:56:45.882Z,50.90
2019-05-01T21:59:16.014Z,51.30
2019-05-01T22:01:46.080Z,51.70
2019-05-01T22:04:16.283Z,51.80
2019-05-01T22:06:51.382Z,51.60
2019-05-01T22:09:22.602Z,51.90
2019-05-01T22:11:52.817Z,51.80
2019-05-01T22:14:37.190Z,51.40
2019-05-01T22:17:09.353Z,52.00
2019-05-01T22:19:39.480Z,51.80
2019-05-01T22:22:17.147Z,51.80
2019-05-01T22:24:51.453Z,51.90
2019-05-01T22:27:23.148Z,52.00
2019-05-01T22:30:05.760Z,51.80
2019-05-01T22:32:40.327Z,51.90
2019-05-01T22:35:18.651Z,52.10
2019-05-01T22:37:49.237Z,52.10
2019-05-01T22:40:21.185Z,52.30
2019-05-01T22:42:51.371Z,52.40
2019-05-01T22:45:23.592Z,52.30
2019-05-01T22:47:53.860Z,52.60
2019-05-01T22:50:23.990Z,52.80
2019-05-01T22:52:54.077Z,53.00
2019-05-01T22:55:25.397Z,52.80
2019-05-01T22:57:55.947Z,52.70
2019-05-01T23:00:36.495Z,52.70
2019-05-01T23:03:11.524Z,51.50
2019-05-01T23:05:41.724Z,52.70
2019-05-01T23:08:11.912Z,52.90
2019-05-01T23:10:47.021Z,51.80
2019-05-01T23:13:13.847Z,51.70
2019-05-01T23:15:44.252Z,53.00
2019-05-01T23:18:15.569Z,52.40
2019-05-01T23:20:46.210Z,53.50
2019-05-01T23:23:16.878Z,52.60
2019-05-01T23:25:46.938Z,53.30
2019-05-01T23:28:17.421Z,52.10
2019-05-01T23:30:47.880Z,52.00
2019-05-01T23:33:18.018Z,52.30
2019-05-01T23:35:48.217Z,52.30
2019-05-01T23:38:18.734Z,53.40
2019-05-01T23:40:50.975Z,54.30
2019-05-01T23:43:23.122Z,54.60
2019-05-01T23:45:52.367Z,54.60
2019-05-01T23:48:22.513Z,54.20
2019-05-01T23:50:52.715Z,54.60
2019-05-01T23:53:22.839Z,53.40
2019-05-01T23:55:54.713Z,54.60
2019-05-01T23:58:24.732Z,54.70
